| time (UTC) | temp F | wind direction | speed knots | gust knots | rain 1hr in | rain 24hr in | rain mn in | humidity % | barometer mb |
| 20260906044039 | 69 | 152 | 0.9 | 0.9 | 0.00 | 0.20 | 0.00 | 99 | 1012.9 |
| 20260906043028 | 70 | 152 | 0.0 | 0.0 | 0.00 | 0.20 | 0.00 | 99 | 1012.9 |
| 20260906042027 | 70 | 152 | 0.0 | 0.0 | 0.00 | 0.20 | 0.00 | 99 | 1013.0 |
| 20260906041029 | 70 | 152 | 0.0 | 0.0 | 0.00 | 0.20 | 0.00 | 99 | 1013.0 |
| 20260906040030 | 70 | 152 | 0.0 | 0.0 | 0.00 | 0.20 | 0.20 | 99 | 1013.3 |
| 20260906035527 | 70 | 152 | 0.0 | 0.0 | 0.00 | 0.20 | 0.20 | 99 | 1013.2 |
| 20260906034529 | 70 | 152 | 0.9 | 0.9 | 0.00 | 0.20 | 0.20 | 99 | 1013.2 |
| 20260906033528 | 71 | 152 | 0.0 | 0.0 | 0.00 | 0.20 | 0.20 | 99 | 1013.3 |
| 20260906032529 | 71 | 152 | 0.0 | 0.0 | 0.00 | 0.20 | 0.20 | 99 | 1013.1 |
| 20260906031528 | 71 | 152 | 0.0 | 0.0 | 0.00 | 0.20 | 0.20 | 99 | 1013.2 |
| 20260906030528 | 71 | 152 | 0.0 | 0.0 | 0.00 | 0.20 | 0.20 | 99 | 1013.4 |
| 20260906025527 | 71 | 152 | 0.0 | 0.0 | 0.00 | 0.20 | 0.20 | 99 | 1013.0 |
| 20260906024529 | 71 | 152 | 0.0 | 0.0 | 0.00 | 0.20 | 0.20 | 99 | 1012.9 |
| 20260906023539 | 71 | 152 | 0.0 | 0.0 | 0.00 | 0.20 | 0.20 | 99 | 1012.9 |
| 20260906022527 | 71 | 152 | 0.0 | 0.0 | 0.00 | 0.20 | 0.20 | 99 | 1012.8 |
| 20260906021527 | 71 | 152 | 0.0 | 0.0 | 0.00 | 0.20 | 0.20 | 99 | 1012.6 |
| 20260906020527 | 71 | 152 | 0.0 | 0.0 | 0.00 | 0.20 | 0.20 | 99 | 1012.8 |
| 20260906015529 | 71 | 152 | 0.0 | 0.0 | 0.00 | 0.20 | 0.20 | 99 | 1012.6 |
| 20260906014527 | 72 | 152 | 0.0 | 0.0 | 0.00 | 0.20 | 0.20 | 99 | 1012.7 |
| 20260906013529 | 72 | 152 | 0.0 | 0.0 | 0.00 | 0.20 | 0.20 | 98 | 1012.6 |
| 20260906012533 | 72 | 152 | 0.0 | 0.0 | 0.00 | 0.20 | 0.20 | 98 | 1012.8 |
| 20260906012028 | 72 | 152 | 0.0 | 0.0 | 0.00 | 0.20 | 0.20 | 98 | 1012.8 |
| 20260906011031 | 72 | 152 | 0.0 | 0.0 | 0.00 | 0.20 | 0.20 | 98 | 1012.4 |
| 20260906010030 | 73 | 152 | 0.0 | 0.0 | 0.00 | 0.20 | 0.20 | 97 | 1012.2 |
| 20260906005027 | 73 | 152 | 0.0 | 0.0 | 0.00 | 0.20 | 0.20 | 97 | 1012.3 |
| 20260906004030 | 74 | 152 | 0.0 | 0.0 | 0.00 | 0.20 | 0.20 | 95 | 1012.3 |
| 20260906003032 | 75 | 152 | 0.0 | 0.0 | 0.00 | 0.20 | 0.20 | 95 | 1012.3 |
| 20260906002030 | 74 | 152 | 1.7 | 0.9 | 0.00 | 0.20 | 0.20 | 96 | 1012.1 |
| 20260906001034 | 75 | 152 | 0.0 | 0.0 | 0.00 | 0.20 | 0.20 | 96 | 1012.0 |
| 20260906000032 | 74 | 152 | 0.0 | 0.0 | 0.00 | 0.20 | 0.20 | 95 | 1012.0 |
| 20260905235030 | 75 | 152 | 0.0 | 0.0 | 0.00 | 0.20 | 0.20 | 95 | 1011.6 |
| 20260905234027 | 76 | 152 | 0.0 | 0.0 | 0.00 | 0.20 | 0.20 | 94 | 1011.6 |
| 20260905233029 | 76 | 152 | 0.0 | 0.0 | 0.20 | 0.20 | 0.20 | 92 | 1011.4 |
| 20260905232027 | 77 | 152 | 0.0 | 0.0 | 0.20 | 0.20 | 0.20 | 91 | 1011.3 |
| 20260905231029 | 78 | 152 | 0.0 | 0.0 | 0.20 | 0.20 | 0.20 | 84 | 1011.7 |
| 20260905230030 | 79 | 152 | 0.0 | 0.0 | 0.20 | 0.20 | 0.20 | 86 | 1011.7 |
| 20260905225527 | 79 | 152 | 0.0 | 0.0 | 0.20 | 0.20 | 0.20 | 84 | 1011.6 |
| 20260905224531 | 81 | 152 | 0.0 | 0.0 | 0.20 | 0.20 | 0.20 | 79 | 1011.8 |
| 20260905223530 | 83 | 153 | 0.0 | 0.0 | 0.20 | 0.20 | 0.20 | 76 | 1011.6 |
| 20260905182538 | 85 | 351 | 7.8 | 9.6 | 0.00 | 0.00 | 0.00 | 58 | 1012.3 |
| 20260905181540 | 88 | 353 | 3.5 | 2.6 | 0.00 | 0.00 | 0.00 | 49 | 1012.6 |
| 20260905180527 | 96 | 0 | 1.7 | 1.7 | 0.00 | 0.00 | 0.00 | 44 | 1012.5 |
| 20260905175529 | 97 | 22 | 1.7 | 2.6 | 0.00 | 0.00 | 0.00 | 44 | 1012.3 |
| 20260905174531 | 96 | 274 | 0.0 | 0.0 | 0.00 | 0.00 | 0.00 | 47 | 1012.8 |
| 20260905173530 | 98 | 214 | 1.7 | 1.7 | 0.00 | 0.00 | 0.00 | 41 | 1013.0 |
| 20260905172540 | 97 | 148 | 1.7 | 3.5 | 0.00 | 0.00 | 0.00 | 41 | 1013.2 |
| 20260905172027 | 96 | 353 | 1.7 | 0.9 | 0.00 | 0.00 | 0.00 | 44 | 1013.1 |
| 20260905171029 | 96 | 211 | 0.0 | 0.0 | 0.00 | 0.00 | 0.00 | 46 | 1013.4 |
| 20260905170030 | 96 | 120 | 1.7 | 1.7 | 0.00 | 0.00 | 0.00 | 45 | 1013.4 |
| 20260905165027 | 96 | 177 | 0.9 | 0.9 | 0.00 | 0.00 | 0.00 | 48 | 1013.6 |
| 20260905164032 | 96 | 48 | 1.7 | 1.7 | 0.00 | 0.00 | 0.00 | 45 | 1013.9 |
| 20260905163031 | 95 | 344 | 1.7 | 1.7 | 0.00 | 0.00 | 0.00 | 51 | 1013.8 |
| 20260905162029 | 96 | 186 | 0.0 | 0.0 | 0.00 | 0.00 | 0.00 | 47 | 1014.1 |
| 20260905161028 | 95 | 38 | 1.7 | 1.7 | 0.00 | 0.00 | 0.00 | 52 | 1014.1 |
| 20260905160031 | 94 | 145 | 1.7 | 1.7 | 0.00 | 0.00 | 0.00 | 55 | 1014.1 |
| 20260905155039 | 94 | 150 | 2.6 | 2.6 | 0.00 | 0.00 | 0.00 | 57 | 1014.3 |
| 20260905154527 | 93 | 109 | 0.9 | 0.9 | 0.00 | 0.00 | 0.00 | 58 | 1014.3 |
| 20260905153528 | 91 | 148 | 2.6 | 2.6 | 0.00 | 0.00 | 0.00 | 61 | 1014.2 |
| 20260905152527 | 92 | 188 | 1.7 | 1.7 | 0.00 | 0.00 | 0.00 | 58 | 1014.0 |
| 20260905151528 | 90 | 166 | 0.9 | 0.9 | 0.00 | 0.00 | 0.00 | 61 | 1014.0 |
| 20260905150532 | 90 | 157 | 0.0 | 0.0 | 0.00 | 0.00 | 0.00 | 66 | 1014.3 |
| 20260905145531 | 89 | 154 | 3.5 | 3.5 | 0.00 | 0.00 | 0.00 | 66 | 1014.2 |
| 20260905145028 | 88 | 143 | 1.7 | 1.7 | 0.00 | 0.00 | 0.00 | 67 | 1014.1 |
| 20260905144030 | 88 | 145 | 2.6 | 3.5 | 0.00 | 0.00 | 0.00 | 70 | 1014.3 |
| 20260905143032 | 87 | 168 | 0.9 | 0.9 | 0.00 | 0.00 | 0.00 | 69 | 1014.5 |
| 20260905142029 | 87 | 132 | 1.7 | 1.7 | 0.00 | 0.00 | 0.00 | 71 | 1014.3 |
| 20260905141031 | 86 | 149 | 1.7 | 1.7 | 0.00 | 0.00 | 0.00 | 74 | 1014.3 |
| 20260905140029 | 85 | 72 | 0.9 | 0.9 | 0.00 | 0.00 | 0.00 | 76 | 1014.6 |
| 20260905135028 | 84 | 157 | 0.9 | 0.9 | 0.00 | 0.00 | 0.00 | 78 | 1014.2 |
| 20260905134038 | 83 | 139 | 0.9 | 0.9 | 0.00 | 0.00 | 0.00 | 79 | 1014.4 |
| 20260905133030 | 82 | 98 | 0.9 | 0.9 | 0.00 | 0.00 | 0.00 | 79 | 1014.3 |
| 20260905132527 | 81 | 147 | 0.9 | 0.9 | 0.00 | 0.00 | 0.00 | 82 | 1014.1 |
| 20260905131527 | 80 | 147 | 0.9 | 0.9 | 0.00 | 0.00 | 0.00 | 83 | 1014.6 |
| 20260905130536 | 79 | 148 | 0.9 | 0.9 | 0.00 | 0.00 | 0.00 | 86 | 1014.5 |
| 20260905125529 | 78 | 163 | 0.9 | 0.9 | 0.00 | 0.00 | 0.00 | 88 | 1014.6 |
| 20260905125027 | 77 | 164 | 0.9 | 0.9 | 0.00 | 0.00 | 0.00 | 89 | 1014.6 |
| 20260905124039 | 76 | 164 | 0.0 | 0.0 | 0.00 | 0.00 | 0.00 | 92 | 1014.5 |
| 20260905123027 | 74 | 164 | 0.9 | 0.9 | 0.00 | 0.00 | 0.00 | 96 | 1014.7 |
| 20260905122028 | 74 | 164 | 0.0 | 0.0 | 0.00 | 0.00 | 0.00 | 95 | 1014.5 |
| 20260905121037 | 73 | 164 | 0.9 | 0.9 | 0.00 | 0.00 | 0.00 | 98 | 1014.5 |
| 20260905120028 | 72 | 164 | 0.0 | 0.0 | 0.00 | 0.00 | 0.00 | 98 | 1014.7 |
| 20260905115028 | 71 | 164 | 0.0 | 0.0 | 0.00 | 0.00 | 0.00 | 99 | 1014.5 |
| 20260905114029 | 71 | 164 | 0.0 | 0.0 | 0.00 | 0.00 | 0.00 | 99 | 1014.1 |
| 20260905113039 | 71 | 164 | 0.0 | 0.0 | 0.00 | 0.00 | 0.00 | 98 | 1014.2 |
| 20260905112028 | 71 | 164 | 0.0 | 0.0 | 0.00 | 0.00 | 0.00 | 98 | 1013.8 |
| 20260905111030 | 70 | 164 | 0.9 | 0.9 | 0.00 | 0.00 | 0.00 | 99 | 1013.7 |
| 20260905110029 | 70 | 164 | 0.0 | 0.0 | 0.00 | 0.00 | 0.00 | 99 | 1013.4 |
| 20260905105030 | 70 | 164 | 0.0 | 0.0 | 0.00 | 0.00 | 0.00 | 99 | 1013.4 |
| 20260905104030 | 70 | 164 | 0.0 | 0.0 | 0.00 | 0.00 | 0.00 | 99 | 1013.0 |
| 20260905103028 | 71 | 164 | 0.0 | 0.9 | 0.00 | 0.00 | 0.00 | 99 | 1013.5 |
| 20260905102027 | 71 | 164 | 0.9 | 0.9 | 0.00 | 0.00 | 0.00 | 99 | 1013.2 |
| 20260905101039 | 71 | 164 | 0.0 | 0.0 | 0.00 | 0.00 | 0.00 | 99 | 1013.2 |
| 20260905100027 | 71 | 164 | 0.0 | 0.0 | 0.00 | 0.00 | 0.00 | 99 | 1013.3 |
| 20260905095027 | 71 | 164 | 0.0 | 0.0 | 0.00 | 0.00 | 0.00 | 99 | 1013.2 |
| 20260905094028 | 72 | 164 | 0.0 | 0.0 | 0.00 | 0.00 | 0.00 | 99 | 1013.2 |
| 20260905093038 | 71 | 164 | 0.0 | 0.0 | 0.00 | 0.00 | 0.00 | 99 | 1013.2 |
| 20260905092027 | 71 | 164 | 0.0 | 0.0 | 0.00 | 0.00 | 0.00 | 99 | 1013.1 |
| 20260905091028 | 72 | 164 | 0.0 | 0.0 | 0.00 | 0.00 | 0.00 | 99 | 1013.0 |
| 20260905090027 | 72 | 164 | 0.0 | 0.0 | 0.00 | 0.00 | 0.00 | 99 | 1013.2 |
| 20260905085027 | 72 | 164 | 0.0 | 0.0 | 0.00 | 0.00 | 0.00 | 99 | 1013.5 |
| 20260905084028 | 72 | 164 | 0.0 | 0.0 | 0.00 | 0.00 | 0.00 | 98 | 1013.5 |
| 20260905083028 | 72 | 164 | 0.0 | 0.0 | 0.00 | 0.00 | 0.00 | 98 | 1013.6 |
| 20260905082029 | 72 | 164 | 0.0 | 0.0 | 0.00 | 0.00 | 0.00 | 97 | 1013.6 |
| 20260905081034 | 73 | 164 | 1.7 | 1.7 | 0.00 | 0.00 | 0.00 | 98 | 1013.5 |
| 20260905080031 | 72 | 164 | 0.0 | 0.0 | 0.00 | 0.00 | 0.00 | 99 | 1013.6 |
| 20260905075032 | 72 | 164 | 0.0 | 0.0 | 0.00 | 0.00 | 0.00 | 98 | 1013.7 |
| 20260905074029 | 73 | 164 | 0.0 | 0.0 | 0.00 | 0.00 | 0.00 | 98 | 1013.7 |
| 20260905073038 | 73 | 164 | 0.0 | 0.0 | 0.00 | 0.00 | 0.00 | 97 | 1013.7 |
| 20260905072028 | 73 | 164 | 0.0 | 0.0 | 0.00 | 0.00 | 0.00 | 97 | 1014.0 |
| 20260905071028 | 73 | 164 | 0.0 | 0.0 | 0.00 | 0.00 | 0.00 | 97 | 1014.1 |
| 20260905070038 | 73 | 164 | 0.9 | 0.9 | 0.00 | 0.00 | 0.00 | 98 | 1014.0 |
| 20260905065038 | 73 | 164 | 0.0 | 0.0 | 0.00 | 0.00 | 0.00 | 97 | 1014.3 |
| 20260905064038 | 73 | 164 | 0.0 | 0.0 | 0.00 | 0.00 | 0.00 | 98 | 1014.4 |
| 20260905063038 | 73 | 164 | 0.0 | 0.0 | 0.00 | 0.00 | 0.00 | 97 | 1014.6 |
| 20260905062027 | 74 | 164 | 0.0 | 0.0 | 0.00 | 0.00 | 0.00 | 97 | 1014.6 |
| 20260905061028 | 74 | 164 | 0.0 | 0.0 | 0.00 | 0.00 | 0.00 | 98 | 1014.7 |
| 20260905060028 | 74 | 164 | 0.0 | 0.0 | 0.00 | 0.00 | 0.00 | 97 | 1014.8 |
| 20260905055028 | 74 | 164 | 0.0 | 0.0 | 0.00 | 0.00 | 0.00 | 97 | 1015.1 |
| 20260905054028 | 74 | 164 | 0.0 | 0.0 | 0.00 | 0.00 | 0.00 | 97 | 1015.3 |
| 20260905053026 | 74 | 164 | 0.9 | 0.9 | 0.00 | 0.00 | 0.00 | 97 | 1015.0 |
| 20260905052027 | 74 | 164 | 0.9 | 0.9 | 0.00 | 0.00 | 0.00 | 96 | 1015.3 |
| 20260905051038 | 74 | 164 | 0.0 | 0.0 | 0.00 | 0.00 | 0.00 | 96 | 1015.0 |
| 20260905050038 | 75 | 164 | 0.9 | 0.9 | 0.00 | 0.00 | 0.00 | 95 | 1014.9 |
| 20260905045028 | 75 | 164 | 0.0 | 0.0 | 0.00 | 0.00 | 0.00 | 95 | 1015.1 |